Portada
METAR-TAF:

METAR-TAF

Aeropuertos :

Tegucigalpa, Honduras

Aeropuerto Internacional Toncontín

latitud: 14-03N, longitud: 087-13W, altitud: 994 m

Observación

El informe se hizo hace 49 minutos, a las 06:00 UTC
Viento calma
Temperatura 20°C
Humedad 68%
Presión 1020 hPa
Visibilidad 10 km o más
Escasas nubes a una altura de 2800 ft

METAR: MHTG 220600Z 00000KT 9999 FEW028 20/14 Q1020 A3012 NOSIG

Hora: 00:49 (06:49 UTC)

Pronóstico

El informe se hizo hace 3 horas y 39 minutos, a las 03:10 UTC
Pronóstico válido del 22 a las 06 UTC al 23 a las 06 UTC
Viento 5 kt del noreste
Visibilidad 10 km o más
Nubes dispersas a una altura de 2600 ft
Evolucionando progresivamente
del 23 a las 03 UTC al 23 a las 05 UTC

TAF: MHTG 220310Z 2206/2306 04005KT 9999 SCT026 TX31/2219Z TN17/2212Z BECMG 2303/2305BKN030

Observaciones y pronósticos meteorológicos de más de 4000 aeropuertos (mensajes METAR y TAF).

Los puntos amarillos y rojos representan las estaciones disponibles.

Ponga el ratón en el punto deseado para ver el nombre de la estación.

Haga clic para ver las observaciones y los pronósticos meteorológicos.

Para cambiar el mapa : haga clic en los botones verdes con una cruz de color negro para hacer un zoom, en el botón verde con un guión para alejar o en las flechas verdes para mapas adyacentes.


METAR-TAF: